sensor_id;sensor_type;location;lat;lon;timestamp;P1;durP1;ratioP1;P2;durP2;ratioP2
21438;SDS011;10880;50.302;18.736;2024-01-10T00:00:15;88.60;;;27.23;;
21438;SDS011;10880;50.302;18.736;2024-01-10T00:02:42;98.60;;;28.43;;
21438;SDS011;10880;50.302;18.736;2024-01-10T00:05:10;116.10;;;30.17;;
21438;SDS011;10880;50.302;18.736;2024-01-10T00:07:37;117.40;;;33.23;;
21438;SDS011;10880;50.302;18.736;2024-01-10T00:10:04;115.20;;;31.17;;
21438;SDS011;10880;50.302;18.736;2024-01-10T00:12:34;119.07;;;32.67;;
21438;SDS011;10880;50.302;18.736;2024-01-10T00:15:04;124.80;;;32.63;;
21438;SDS011;10880;50.302;18.736;2024-01-10T00:17:34;120.03;;;32.43;;
21438;SDS011;10880;50.302;18.736;2024-01-10T00:20:02;126.93;;;34.17;;
21438;SDS011;10880;50.302;18.736;2024-01-10T00:22:30;121.33;;;32.83;;
21438;SDS011;10880;50.302;18.736;2024-01-10T00:24:56;117.47;;;30.43;;
21438;SDS011;10880;50.302;18.736;2024-01-10T00:27:24;112.67;;;30.77;;
21438;SDS011;10880;50.302;18.736;2024-01-10T00:29:53;127.43;;;32.90;;
21438;SDS011;10880;50.302;18.736;2024-01-10T00:32:22;124.97;;;31.67;;
21438;SDS011;10880;50.302;18.736;2024-01-10T00:34:49;125.97;;;33.37;;
21438;SDS011;10880;50.302;18.736;2024-01-10T00:37:15;105.60;;;29.27;;
21438;SDS011;10880;50.302;18.736;2024-01-10T00:39:42;147.70;;;36.67;;
21438;SDS011;10880;50.302;18.736;2024-01-10T00:42:10;138.33;;;33.10;;
21438;SDS011;10880;50.302;18.736;2024-01-10T00:44:38;124.00;;;32.33;;
21438;SDS011;10880;50.302;18.736;2024-01-10T00:47:07;136.50;;;32.57;;
21438;SDS011;10880;50.302;18.736;2024-01-10T00:49:34;125.93;;;32.80;;
21438;SDS011;10880;50.302;18.736;2024-01-10T00:52:01;136.23;;;36.93;;
21438;SDS011;10880;50.302;18.736;2024-01-10T00:54:28;126.20;;;34.20;;
21438;SDS011;10880;50.302;18.736;2024-01-10T00:56:55;138.40;;;38.33;;
21438;SDS011;10880;50.302;18.736;2024-01-10T00:59:22;116.23;;;34.30;;
21438;SDS011;10880;50.302;18.736;2024-01-10T01:01:49;153.47;;;38.67;;
21438;SDS011;10880;50.302;18.736;2024-01-10T01:04:15;135.63;;;36.43;;
21438;SDS011;10880;50.302;18.736;2024-01-10T01:06:42;132.30;;;34.77;;
21438;SDS011;10880;50.302;18.736;2024-01-10T01:09:09;117.33;;;30.60;;
21438;SDS011;10880;50.302;18.736;2024-01-10T01:11:35;95.90;;;27.20;;
21438;SDS011;10880;50.302;18.736;2024-01-10T01:14:06;125.40;;;31.53;;
21438;SDS011;10880;50.302;18.736;2024-01-10T01:16:33;136.00;;;33.97;;
21438;SDS011;10880;50.302;18.736;2024-01-10T01:18:59;132.17;;;34.07;;
21438;SDS011;10880;50.302;18.736;2024-01-10T01:21:26;144.10;;;36.17;;
21438;SDS011;10880;50.302;18.736;2024-01-10T01:23:53;138.27;;;33.90;;
21438;SDS011;10880;50.302;18.736;2024-01-10T01:26:20;152.83;;;38.57;;
21438;SDS011;10880;50.302;18.736;2024-01-10T01:28:47;143.10;;;38.20;;
21438;SDS011;10880;50.302;18.736;2024-01-10T01:31:14;161.50;;;41.47;;
21438;SDS011;10880;50.302;18.736;2024-01-10T01:33:42;135.50;;;34.90;;
21438;SDS011;10880;50.302;18.736;2024-01-10T01:36:09;109.87;;;28.23;;
21438;SDS011;10880;50.302;18.736;2024-01-10T01:38:36;119.53;;;30.40;;
21438;SDS011;10880;50.302;18.736;2024-01-10T01:41:03;118.80;;;32.33;;
21438;SDS011;10880;50.302;18.736;2024-01-10T01:43:31;137.73;;;36.53;;
21438;SDS011;10880;50.302;18.736;2024-01-10T01:45:58;155.33;;;39.13;;
21438;SDS011;10880;50.302;18.736;2024-01-10T01:48:28;145.00;;;38.00;;
21438;SDS011;10880;50.302;18.736;2024-01-10T01:51:06;146.43;;;37.17;;
21438;SDS011;10880;50.302;18.736;2024-01-10T01:53:33;130.37;;;34.63;;
21438;SDS011;10880;50.302;18.736;2024-01-10T01:56:02;122.57;;;33.27;;
21438;SDS011;10880;50.302;18.736;2024-01-10T01:58:32;129.73;;;34.80;;
21438;SDS011;10880;50.302;18.736;2024-01-10T02:00:59;112.60;;;31.73;;
21438;SDS011;10880;50.302;18.736;2024-01-10T02:03:27;116.93;;;30.17;;
21438;SDS011;10880;50.302;18.736;2024-01-10T02:06:01;96.77;;;26.87;;
21438;SDS011;10880;50.302;18.736;2024-01-10T02:08:34;104.70;;;28.20;;
21438;SDS011;10880;50.302;18.736;2024-01-10T02:11:06;111.23;;;29.80;;
21438;SDS011;10880;50.302;18.736;2024-01-10T02:13:35;80.57;;;22.80;;
21438;SDS011;10880;50.302;18.736;2024-01-10T02:16:03;106.27;;;29.37;;
21438;SDS011;10880;50.302;18.736;2024-01-10T02:18:29;98.87;;;27.30;;
21438;SDS011;10880;50.302;18.736;2024-01-10T02:20:56;100.23;;;27.70;;
21438;SDS011;10880;50.302;18.736;2024-01-10T02:23:23;109.90;;;28.20;;
21438;SDS011;10880;50.302;18.736;2024-01-10T02:25:51;99.30;;;27.60;;
21438;SDS011;10880;50.302;18.736;2024-01-10T02:28:18;95.90;;;28.10;;
21438;SDS011;10880;50.302;18.736;2024-01-10T02:30:44;91.10;;;27.83;;
21438;SDS011;10880;50.302;18.736;2024-01-10T02:33:13;97.60;;;27.00;;
21438;SDS011;10880;50.302;18.736;2024-01-10T02:35:40;99.03;;;29.33;;
21438;SDS011;10880;50.302;18.736;2024-01-10T02:38:07;108.13;;;28.87;;
21438;SDS011;10880;50.302;18.736;2024-01-10T02:40:33;98.87;;;30.20;;
21438;SDS011;10880;50.302;18.736;2024-01-10T02:43:00;114.03;;;32.03;;
21438;SDS011;10880;50.302;18.736;2024-01-10T02:45:27;108.93;;;29.60;;
21438;SDS011;10880;50.302;18.736;2024-01-10T02:47:53;102.20;;;30.27;;
21438;SDS011;10880;50.302;18.736;2024-01-10T02:50:20;105.47;;;28.53;;
21438;SDS011;10880;50.302;18.736;2024-01-10T02:52:48;75.60;;;22.53;;
21438;SDS011;10880;50.302;18.736;2024-01-10T02:55:16;89.67;;;23.00;;
21438;SDS011;10880;50.302;18.736;2024-01-10T02:57:43;82.43;;;25.77;;
21438;SDS011;10880;50.302;18.736;2024-01-10T03:00:10;82.90;;;25.87;;
21438;SDS011;10880;50.302;18.736;2024-01-10T03:02:37;89.03;;;26.63;;
21438;SDS011;10880;50.302;18.736;2024-01-10T03:05:05;88.60;;;24.87;;
21438;SDS011;10880;50.302;18.736;2024-01-10T03:07:31;89.10;;;27.37;;
21438;SDS011;10880;50.302;18.736;2024-01-10T03:10:00;96.90;;;27.07;;
21438;SDS011;10880;50.302;18.736;2024-01-10T03:12:28;90.60;;;25.73;;
21438;SDS011;10880;50.302;18.736;2024-01-10T03:14:55;94.30;;;26.70;;
21438;SDS011;10880;50.302;18.736;2024-01-10T03:17:22;90.03;;;26.17;;
21438;SDS011;10880;50.302;18.736;2024-01-10T03:19:49;93.40;;;26.27;;
21438;SDS011;10880;50.302;18.736;2024-01-10T03:22:16;88.13;;;27.33;;
21438;SDS011;10880;50.302;18.736;2024-01-10T03:24:44;99.17;;;28.73;;
21438;SDS011;10880;50.302;18.736;2024-01-10T03:27:11;88.83;;;27.47;;
21438;SDS011;10880;50.302;18.736;2024-01-10T03:29:40;99.50;;;27.63;;
21438;SDS011;10880;50.302;18.736;2024-01-10T03:32:06;87.13;;;26.23;;
21438;SDS011;10880;50.302;18.736;2024-01-10T03:34:36;88.10;;;25.00;;
21438;SDS011;10880;50.302;18.736;2024-01-10T03:37:03;99.60;;;26.80;;
21438;SDS011;10880;50.302;18.736;2024-01-10T03:39:29;87.27;;;28.40;;
21438;SDS011;10880;50.302;18.736;2024-01-10T03:41:57;84.77;;;24.67;;
21438;SDS011;10880;50.302;18.736;2024-01-10T03:44:23;99.27;;;29.47;;
21438;SDS011;10880;50.302;18.736;2024-01-10T03:46:50;94.03;;;27.30;;
21438;SDS011;10880;50.302;18.736;2024-01-10T03:49:17;88.37;;;25.57;;
21438;SDS011;10880;50.302;18.736;2024-01-10T03:51:43;88.23;;;26.53;;
21438;SDS011;10880;50.302;18.736;2024-01-10T03:54:10;82.33;;;25.67;;
21438;SDS011;10880;50.302;18.736;2024-01-10T03:56:37;90.30;;;27.80;;
21438;SDS011;10880;50.302;18.736;2024-01-10T03:59:03;86.40;;;26.07;;
21438;SDS011;10880;50.302;18.736;2024-01-10T04:01:30;82.23;;;25.30;;
21438;SDS011;10880;50.302;18.736;2024-01-10T04:03:59;85.83;;;27.50;;
21438;SDS011;10880;50.302;18.736;2024-01-10T04:06:29;90.60;;;26.47;;
21438;SDS011;10880;50.302;18.736;2024-01-10T04:08:56;83.37;;;25.37;;
21438;SDS011;10880;50.302;18.736;2024-01-10T04:11:23;92.03;;;30.50;;
21438;SDS011;10880;50.302;18.736;2024-01-10T04:13:51;87.00;;;26.20;;
21438;SDS011;10880;50.302;18.736;2024-01-10T04:16:19;85.97;;;26.87;;
21438;SDS011;10880;50.302;18.736;2024-01-10T04:18:45;83.43;;;24.93;;
21438;SDS011;10880;50.302;18.736;2024-01-10T04:21:12;74.13;;;22.07;;
21438;SDS011;10880;50.302;18.736;2024-01-10T04:23:39;74.07;;;22.43;;
21438;SDS011;10880;50.302;18.736;2024-01-10T04:26:09;75.13;;;22.23;;
21438;SDS011;10880;50.302;18.736;2024-01-10T04:28:38;87.60;;;27.03;;
21438;SDS011;10880;50.302;18.736;2024-01-10T04:31:07;86.50;;;26.43;;
21438;SDS011;10880;50.302;18.736;2024-01-10T04:33:34;90.90;;;26.60;;
21438;SDS011;10880;50.302;18.736;2024-01-10T04:36:02;105.03;;;30.90;;
21438;SDS011;10880;50.302;18.736;2024-01-10T04:38:28;106.10;;;29.90;;
21438;SDS011;10880;50.302;18.736;2024-01-10T04:40:56;104.30;;;29.17;;
21438;SDS011;10880;50.302;18.736;2024-01-10T04:43:24;89.83;;;26.60;;
21438;SDS011;10880;50.302;18.736;2024-01-10T04:45:51;85.63;;;24.13;;
21438;SDS011;10880;50.302;18.736;2024-01-10T04:48:19;83.40;;;26.87;;
21438;SDS011;10880;50.302;18.736;2024-01-10T04:50:47;93.37;;;29.77;;
21438;SDS011;10880;50.302;18.736;2024-01-10T04:53:14;108.03;;;31.20;;
21438;SDS011;10880;50.302;18.736;2024-01-10T04:55:43;108.93;;;32.63;;
21438;SDS011;10880;50.302;18.736;2024-01-10T04:58:11;107.70;;;30.40;;
21438;SDS011;10880;50.302;18.736;2024-01-10T05:00:39;102.63;;;31.07;;
21438;SDS011;10880;50.302;18.736;2024-01-10T05:03:07;98.13;;;29.17;;
21438;SDS011;10880;50.302;18.736;2024-01-10T05:05:35;93.07;;;27.40;;
21438;SDS011;10880;50.302;18.736;2024-01-10T05:08:01;76.33;;;24.03;;
21438;SDS011;10880;50.302;18.736;2024-01-10T05:10:28;97.30;;;29.00;;
21438;SDS011;10880;50.302;18.736;2024-01-10T05:12:56;102.63;;;30.10;;
21438;SDS011;10880;50.302;18.736;2024-01-10T05:15:23;111.03;;;32.70;;
21438;SDS011;10880;50.302;18.736;2024-01-10T05:17:50;118.07;;;33.63;;
21438;SDS011;10880;50.302;18.736;2024-01-10T05:20:16;119.53;;;35.23;;
21438;SDS011;10880;50.302;18.736;2024-01-10T05:22:43;120.17;;;33.27;;
21438;SDS011;10880;50.302;18.736;2024-01-10T05:25:12;111.93;;;31.43;;
21438;SDS011;10880;50.302;18.736;2024-01-10T05:27:39;124.03;;;34.33;;
21438;SDS011;10880;50.302;18.736;2024-01-10T05:30:06;122.63;;;33.93;;
21438;SDS011;10880;50.302;18.736;2024-01-10T05:32:33;145.23;;;42.73;;
21438;SDS011;10880;50.302;18.736;2024-01-10T05:35:00;156.47;;;47.50;;
21438;SDS011;10880;50.302;18.736;2024-01-10T05:37:27;148.00;;;43.97;;
21438;SDS011;10880;50.302;18.736;2024-01-10T05:39:53;144.20;;;43.40;;
21438;SDS011;10880;50.302;18.736;2024-01-10T05:42:20;134.13;;;38.97;;
21438;SDS011;10880;50.302;18.736;2024-01-10T05:44:50;118.87;;;36.60;;
21438;SDS011;10880;50.302;18.736;2024-01-10T05:47:18;132.43;;;38.67;;
21438;SDS011;10880;50.302;18.736;2024-01-10T05:49:45;125.67;;;37.27;;
21438;SDS011;10880;50.302;18.736;2024-01-10T05:52:11;123.33;;;34.80;;
21438;SDS011;10880;50.302;18.736;2024-01-10T05:54:38;122.20;;;34.50;;
21438;SDS011;10880;50.302;18.736;2024-01-10T05:57:05;128.77;;;35.83;;
21438;SDS011;10880;50.302;18.736;2024-01-10T05:59:32;126.63;;;37.10;;
21438;SDS011;10880;50.302;18.736;2024-01-10T06:01:58;137.73;;;35.27;;
21438;SDS011;10880;50.302;18.736;2024-01-10T06:04:26;127.87;;;36.53;;
21438;SDS011;10880;50.302;18.736;2024-01-10T06:06:58;119.07;;;33.87;;
21438;SDS011;10880;50.302;18.736;2024-01-10T06:09:24;130.70;;;34.87;;
21438;SDS011;10880;50.302;18.736;2024-01-10T06:11:51;115.87;;;32.93;;
21438;SDS011;10880;50.302;18.736;2024-01-10T06:14:18;113.60;;;32.03;;
21438;SDS011;10880;50.302;18.736;2024-01-10T06:16:45;115.67;;;32.43;;
21438;SDS011;10880;50.302;18.736;2024-01-10T06:19:13;127.17;;;37.03;;
21438;SDS011;10880;50.302;18.736;2024-01-10T06:21:40;122.73;;;35.90;;
21438;SDS011;10880;50.302;18.736;2024-01-10T06:24:09;104.07;;;31.67;;
21438;SDS011;10880;50.302;18.736;2024-01-10T06:26:36;101.97;;;29.20;;
21438;SDS011;10880;50.302;18.736;2024-01-10T06:29:04;128.10;;;38.23;;
21438;SDS011;10880;50.302;18.736;2024-01-10T06:31:32;138.53;;;39.70;;
21438;SDS011;10880;50.302;18.736;2024-01-10T06:33:59;131.70;;;35.63;;
21438;SDS011;10880;50.302;18.736;2024-01-10T06:36:26;110.20;;;30.63;;
21438;SDS011;10880;50.302;18.736;2024-01-10T06:38:52;116.13;;;32.50;;
21438;SDS011;10880;50.302;18.736;2024-01-10T06:41:21;136.70;;;43.30;;
21438;SDS011;10880;50.302;18.736;2024-01-10T06:43:52;144.53;;;41.47;;
21438;SDS011;10880;50.302;18.736;2024-01-10T06:46:21;138.17;;;39.47;;
21438;SDS011;10880;50.302;18.736;2024-01-10T06:48:48;135.07;;;39.77;;
21438;SDS011;10880;50.302;18.736;2024-01-10T06:51:17;147.47;;;41.93;;
21438;SDS011;10880;50.302;18.736;2024-01-10T06:53:44;149.03;;;45.33;;
21438;SDS011;10880;50.302;18.736;2024-01-10T06:56:12;154.20;;;44.33;;
21438;SDS011;10880;50.302;18.736;2024-01-10T06:58:39;166.50;;;46.53;;
21438;SDS011;10880;50.302;18.736;2024-01-10T07:01:12;143.73;;;40.67;;
21438;SDS011;10880;50.302;18.736;2024-01-10T07:03:40;154.03;;;41.50;;
21438;SDS011;10880;50.302;18.736;2024-01-10T07:06:08;167.17;;;47.83;;
21438;SDS011;10880;50.302;18.736;2024-01-10T07:08:34;175.33;;;48.73;;
21438;SDS011;10880;50.302;18.736;2024-01-10T07:11:01;160.13;;;44.83;;
21438;SDS011;10880;50.302;18.736;2024-01-10T07:13:29;165.53;;;47.67;;
21438;SDS011;10880;50.302;18.736;2024-01-10T07:15:57;163.23;;;48.03;;
21438;SDS011;10880;50.302;18.736;2024-01-10T07:18:28;209.53;;;52.50;;
21438;SDS011;10880;50.302;18.736;2024-01-10T07:20:57;187.60;;;50.03;;
21438;SDS011;10880;50.302;18.736;2024-01-10T07:23:24;187.37;;;50.37;;
21438;SDS011;10880;50.302;18.736;2024-01-10T07:25:53;183.70;;;48.50;;
21438;SDS011;10880;50.302;18.736;2024-01-10T07:28:26;150.80;;;45.23;;
21438;SDS011;10880;50.302;18.736;2024-01-10T07:30:52;176.73;;;47.63;;
21438;SDS011;10880;50.302;18.736;2024-01-10T07:33:20;202.70;;;53.70;;
21438;SDS011;10880;50.302;18.736;2024-01-10T07:35:47;225.43;;;58.23;;
21438;SDS011;10880;50.302;18.736;2024-01-10T07:38:15;280.43;;;66.90;;
21438;SDS011;10880;50.302;18.736;2024-01-10T07:40:42;271.73;;;65.67;;
21438;SDS011;10880;50.302;18.736;2024-01-10T07:43:10;321.00;;;74.03;;
21438;SDS011;10880;50.302;18.736;2024-01-10T07:45:37;348.80;;;81.13;;
21438;SDS011;10880;50.302;18.736;2024-01-10T07:48:05;348.37;;;82.23;;
21438;SDS011;10880;50.302;18.736;2024-01-10T07:50:32;297.93;;;73.70;;
21438;SDS011;10880;50.302;18.736;2024-01-10T07:52:59;234.47;;;59.53;;
21438;SDS011;10880;50.302;18.736;2024-01-10T07:55:27;229.43;;;59.30;;
21438;SDS011;10880;50.302;18.736;2024-01-10T07:57:56;238.50;;;60.80;;
21438;SDS011;10880;50.302;18.736;2024-01-10T08:00:25;190.13;;;54.70;;
21438;SDS011;10880;50.302;18.736;2024-01-10T08:02:52;166.57;;;47.03;;
21438;SDS011;10880;50.302;18.736;2024-01-10T08:05:19;163.80;;;47.83;;
21438;SDS011;10880;50.302;18.736;2024-01-10T08:07:46;161.33;;;46.10;;
21438;SDS011;10880;50.302;18.736;2024-01-10T08:10:13;143.03;;;41.57;;
21438;SDS011;10880;50.302;18.736;2024-01-10T08:12:43;164.10;;;46.67;;
21438;SDS011;10880;50.302;18.736;2024-01-10T08:15:10;164.53;;;47.70;;
21438;SDS011;10880;50.302;18.736;2024-01-10T08:17:37;178.37;;;51.53;;
21438;SDS011;10880;50.302;18.736;2024-01-10T08:20:09;185.50;;;50.90;;
21438;SDS011;10880;50.302;18.736;2024-01-10T08:22:37;176.67;;;47.50;;
21438;SDS011;10880;50.302;18.736;2024-01-10T08:25:08;172.50;;;47.43;;
21438;SDS011;10880;50.302;18.736;2024-01-10T08:27:44;162.57;;;47.17;;
21438;SDS011;10880;50.302;18.736;2024-01-10T08:30:16;149.23;;;43.63;;
21438;SDS011;10880;50.302;18.736;2024-01-10T08:32:51;193.53;;;54.80;;
21438;SDS011;10880;50.302;18.736;2024-01-10T08:35:22;169.80;;;49.77;;
21438;SDS011;10880;50.302;18.736;2024-01-10T08:37:50;154.87;;;45.50;;
21438;SDS011;10880;50.302;18.736;2024-01-10T08:40:19;137.67;;;40.67;;
21438;SDS011;10880;50.302;18.736;2024-01-10T08:42:51;146.17;;;41.00;;
21438;SDS011;10880;50.302;18.736;2024-01-10T08:45:18;184.47;;;52.37;;
21438;SDS011;10880;50.302;18.736;2024-01-10T08:50:53;149.10;;;44.10;;
21438;SDS011;10880;50.302;18.736;2024-01-10T08:53:24;157.70;;;45.13;;
21438;SDS011;10880;50.302;18.736;2024-01-10T08:59:11;140.77;;;42.40;;
21438;SDS011;10880;50.302;18.736;2024-01-10T09:01:49;150.83;;;44.17;;
21438;SDS011;10880;50.302;18.736;2024-01-10T09:04:27;157.57;;;43.03;;
21438;SDS011;10880;50.302;18.736;2024-01-10T09:07:02;169.27;;;48.17;;
21438;SDS011;10880;50.302;18.736;2024-01-10T09:09:35;161.67;;;48.10;;
21438;SDS011;10880;50.302;18.736;2024-01-10T09:19:35;225.77;;;62.77;;
21438;SDS011;10880;50.302;18.736;2024-01-10T09:22:09;204.67;;;56.73;;
21438;SDS011;10880;50.302;18.736;2024-01-10T09:24:40;174.17;;;50.17;;
21438;SDS011;10880;50.302;18.736;2024-01-10T09:27:11;174.03;;;50.63;;
21438;SDS011;10880;50.302;18.736;2024-01-10T09:29:40;151.40;;;45.50;;
21438;SDS011;10880;50.302;18.736;2024-01-10T09:32:12;147.90;;;43.33;;
21438;SDS011;10880;50.302;18.736;2024-01-10T09:34:40;162.73;;;48.80;;
21438;SDS011;10880;50.302;18.736;2024-01-10T09:37:09;251.37;;;69.33;;
21438;SDS011;10880;50.302;18.736;2024-01-10T09:39:36;176.70;;;54.83;;
21438;SDS011;10880;50.302;18.736;2024-01-10T09:42:11;181.80;;;54.27;;
21438;SDS011;10880;50.302;18.736;2024-01-10T09:44:39;168.00;;;49.40;;
21438;SDS011;10880;50.302;18.736;2024-01-10T09:47:14;154.70;;;47.23;;
21438;SDS011;10880;50.302;18.736;2024-01-10T09:49:41;177.30;;;53.10;;
21438;SDS011;10880;50.302;18.736;2024-01-10T09:52:47;192.67;;;55.50;;
21438;SDS011;10880;50.302;18.736;2024-01-10T09:55:08;184.10;;;56.00;;
21438;SDS011;10880;50.302;18.736;2024-01-10T09:57:36;195.33;;;56.33;;
21438;SDS011;10880;50.302;18.736;2024-01-10T10:00:17;182.97;;;51.33;;
21438;SDS011;10880;50.302;18.736;2024-01-10T10:02:50;184.23;;;52.70;;
21438;SDS011;10880;50.302;18.736;2024-01-10T10:05:24;133.90;;;42.90;;
21438;SDS011;10880;50.302;18.736;2024-01-10T10:07:57;148.97;;;45.17;;
21438;SDS011;10880;50.302;18.736;2024-01-10T10:10:31;144.30;;;42.93;;
21438;SDS011;10880;50.302;18.736;2024-01-10T10:16:00;154.57;;;49.57;;
21438;SDS011;10880;50.302;18.736;2024-01-10T10:18:30;167.53;;;49.53;;
21438;SDS011;10880;50.302;18.736;2024-01-10T10:21:07;148.40;;;46.77;;
21438;SDS011;10880;50.302;18.736;2024-01-10T10:23:36;165.17;;;51.33;;
21438;SDS011;10880;50.302;18.736;2024-01-10T10:26:25;131.90;;;40.27;;
21438;SDS011;10880;50.302;18.736;2024-01-10T10:28:59;140.80;;;44.93;;
21438;SDS011;10880;50.302;18.736;2024-01-10T10:31:28;148.90;;;47.17;;
21438;SDS011;10880;50.302;18.736;2024-01-10T10:34:00;108.57;;;33.57;;
21438;SDS011;10880;50.302;18.736;2024-01-10T10:36:31;108.33;;;33.87;;
21438;SDS011;10880;50.302;18.736;2024-01-10T10:38:59;117.87;;;37.40;;
21438;SDS011;10880;50.302;18.736;2024-01-10T10:41:33;137.13;;;43.80;;
21438;SDS011;10880;50.302;18.736;2024-01-10T10:44:04;159.63;;;48.97;;
21438;SDS011;10880;50.302;18.736;2024-01-10T10:46:36;148.70;;;45.57;;
21438;SDS011;10880;50.302;18.736;2024-01-10T10:49:06;135.83;;;42.83;;
21438;SDS011;10880;50.302;18.736;2024-01-10T10:51:43;135.67;;;40.33;;
21438;SDS011;10880;50.302;18.736;2024-01-10T10:54:10;110.47;;;34.57;;
21438;SDS011;10880;50.302;18.736;2024-01-10T10:56:40;146.77;;;46.40;;
21438;SDS011;10880;50.302;18.736;2024-01-10T10:59:10;110.70;;;36.40;;
21438;SDS011;10880;50.302;18.736;2024-01-10T11:01:41;136.73;;;43.13;;
21438;SDS011;10880;50.302;18.736;2024-01-10T11:08:41;187.70;;;54.80;;
21438;SDS011;10880;50.302;18.736;2024-01-10T11:11:31;165.67;;;48.97;;
21438;SDS011;10880;50.302;18.736;2024-01-10T11:25:26;102.80;;;32.80;;
21438;SDS011;10880;50.302;18.736;2024-01-10T11:28:17;95.93;;;30.93;;
21438;SDS011;10880;50.302;18.736;2024-01-10T11:30:51;79.03;;;25.67;;
21438;SDS011;10880;50.302;18.736;2024-01-10T11:42:42;117.27;;;36.10;;
21438;SDS011;10880;50.302;18.736;2024-01-10T11:48:02;139.83;;;41.43;;
21438;SDS011;10880;50.302;18.736;2024-01-10T11:50:36;110.20;;;35.47;;
21438;SDS011;10880;50.302;18.736;2024-01-10T11:53:13;87.63;;;27.57;;
21438;SDS011;10880;50.302;18.736;2024-01-10T11:55:53;79.13;;;25.93;;
21438;SDS011;10880;50.302;18.736;2024-01-10T11:58:23;68.67;;;23.33;;
21438;SDS011;10880;50.302;18.736;2024-01-10T12:00:55;66.47;;;23.30;;
21438;SDS011;10880;50.302;18.736;2024-01-10T12:03:23;114.53;;;36.50;;
21438;SDS011;10880;50.302;18.736;2024-01-10T12:05:59;107.83;;;37.47;;
21438;SDS011;10880;50.302;18.736;2024-01-10T12:08:26;92.67;;;31.07;;
21438;SDS011;10880;50.302;18.736;2024-01-10T12:10:55;107.37;;;37.43;;
21438;SDS011;10880;50.302;18.736;2024-01-10T12:13:24;83.83;;;28.00;;
21438;SDS011;10880;50.302;18.736;2024-01-10T12:15:53;78.27;;;26.97;;
21438;SDS011;10880;50.302;18.736;2024-01-10T12:18:22;70.23;;;24.53;;
21438;SDS011;10880;50.302;18.736;2024-01-10T12:20:50;64.37;;;22.73;;
21438;SDS011;10880;50.302;18.736;2024-01-10T12:23:18;74.90;;;23.87;;
21438;SDS011;10880;50.302;18.736;2024-01-10T12:25:54;99.00;;;32.20;;
21438;SDS011;10880;50.302;18.736;2024-01-10T12:28:25;72.50;;;23.80;;
21438;SDS011;10880;50.302;18.736;2024-01-10T12:30:57;71.07;;;24.30;;
21438;SDS011;10880;50.302;18.736;2024-01-10T12:33:37;63.53;;;22.30;;
21438;SDS011;10880;50.302;18.736;2024-01-10T12:36:10;62.67;;;22.93;;
21438;SDS011;10880;50.302;18.736;2024-01-10T12:38:38;66.53;;;24.83;;
21438;SDS011;10880;50.302;18.736;2024-01-10T12:41:05;103.00;;;35.40;;
21438;SDS011;10880;50.302;18.736;2024-01-10T12:43:35;93.27;;;30.50;;
21438;SDS011;10880;50.302;18.736;2024-01-10T12:49:00;91.67;;;31.00;;
21438;SDS011;10880;50.302;18.736;2024-01-10T12:51:30;100.40;;;33.03;;
21438;SDS011;10880;50.302;18.736;2024-01-10T12:54:09;76.87;;;24.23;;
21438;SDS011;10880;50.302;18.736;2024-01-10T12:59:48;69.27;;;24.47;;
21438;SDS011;10880;50.302;18.736;2024-01-10T13:02:18;56.10;;;20.53;;
21438;SDS011;10880;50.302;18.736;2024-01-10T13:07:41;76.23;;;24.87;;
21438;SDS011;10880;50.302;18.736;2024-01-10T13:13:12;51.73;;;18.07;;
21438;SDS011;10880;50.302;18.736;2024-01-10T13:21:44;45.07;;;16.50;;
21438;SDS011;10880;50.302;18.736;2024-01-10T13:24:21;45.17;;;16.60;;
21438;SDS011;10880;50.302;18.736;2024-01-10T13:27:07;57.30;;;21.50;;
21438;SDS011;10880;50.302;18.736;2024-01-10T13:29:47;70.13;;;23.30;;
21438;SDS011;10880;50.302;18.736;2024-01-10T13:32:27;59.43;;;20.33;;
21438;SDS011;10880;50.302;18.736;2024-01-10T13:35:04;53.50;;;17.87;;
21438;SDS011;10880;50.302;18.736;2024-01-10T13:37:41;45.53;;;18.47;;
21438;SDS011;10880;50.302;18.736;2024-01-10T13:40:19;56.90;;;21.57;;
21438;SDS011;10880;50.302;18.736;2024-01-10T13:42:54;56.90;;;19.87;;
21438;SDS011;10880;50.302;18.736;2024-01-10T13:45:28;60.40;;;20.30;;
21438;SDS011;10880;50.302;18.736;2024-01-10T13:47:56;50.63;;;17.40;;
21438;SDS011;10880;50.302;18.736;2024-01-10T13:50:25;45.10;;;17.37;;
21438;SDS011;10880;50.302;18.736;2024-01-10T13:52:55;50.30;;;17.50;;
21438;SDS011;10880;50.302;18.736;2024-01-10T13:55:39;69.17;;;23.87;;
21438;SDS011;10880;50.302;18.736;2024-01-10T13:58:18;52.83;;;18.00;;
21438;SDS011;10880;50.302;18.736;2024-01-10T14:00:46;51.97;;;17.37;;
21438;SDS011;10880;50.302;18.736;2024-01-10T14:09:53;40.33;;;15.97;;
21438;SDS011;10880;50.302;18.736;2024-01-10T14:12:23;50.17;;;17.83;;
21438;SDS011;10880;50.302;18.736;2024-01-10T14:14:53;44.37;;;16.93;;
21438;SDS011;10880;50.302;18.736;2024-01-10T14:17:20;42.13;;;16.23;;
21438;SDS011;10880;50.302;18.736;2024-01-10T14:19:51;47.60;;;17.03;;
21438;SDS011;10880;50.302;18.736;2024-01-10T14:22:18;41.97;;;15.27;;
21438;SDS011;10880;50.302;18.736;2024-01-10T14:24:47;43.47;;;15.13;;
21438;SDS011;10880;50.302;18.736;2024-01-10T14:27:18;49.47;;;17.53;;
21438;SDS011;10880;50.302;18.736;2024-01-10T14:29:55;47.60;;;16.80;;
21438;SDS011;10880;50.302;18.736;2024-01-10T14:32:25;45.87;;;17.90;;
21438;SDS011;10880;50.302;18.736;2024-01-10T14:34:55;46.13;;;17.53;;
21438;SDS011;10880;50.302;18.736;2024-01-10T14:37:27;50.50;;;17.93;;
21438;SDS011;10880;50.302;18.736;2024-01-10T14:45:54;54.63;;;18.93;;
21438;SDS011;10880;50.302;18.736;2024-01-10T14:48:29;52.93;;;18.67;;
21438;SDS011;10880;50.302;18.736;2024-01-10T14:51:20;62.30;;;19.03;;
21438;SDS011;10880;50.302;18.736;2024-01-10T14:53:47;49.30;;;18.27;;
21438;SDS011;10880;50.302;18.736;2024-01-10T14:56:35;63.67;;;22.10;;
21438;SDS011;10880;50.302;18.736;2024-01-10T14:59:06;66.37;;;21.00;;
21438;SDS011;10880;50.302;18.736;2024-01-10T15:01:34;61.93;;;21.17;;
21438;SDS011;10880;50.302;18.736;2024-01-10T15:04:02;60.90;;;20.23;;
21438;SDS011;10880;50.302;18.736;2024-01-10T15:06:29;63.10;;;22.37;;
21438;SDS011;10880;50.302;18.736;2024-01-10T15:08:56;62.13;;;21.00;;
21438;SDS011;10880;50.302;18.736;2024-01-10T15:11:27;59.73;;;19.90;;
21438;SDS011;10880;50.302;18.736;2024-01-10T15:13:55;57.67;;;20.20;;
21438;SDS011;10880;50.302;18.736;2024-01-10T15:16:24;55.00;;;20.03;;
21438;SDS011;10880;50.302;18.736;2024-01-10T15:18:53;65.70;;;23.17;;
21438;SDS011;10880;50.302;18.736;2024-01-10T15:21:23;72.90;;;24.50;;
21438;SDS011;10880;50.302;18.736;2024-01-10T15:23:56;67.30;;;24.93;;
21438;SDS011;10880;50.302;18.736;2024-01-10T15:26:30;67.37;;;23.63;;
21438;SDS011;10880;50.302;18.736;2024-01-10T15:28:57;67.70;;;23.23;;